sensor_id;sensor_type;location;lat;lon;timestamp;P1;durP1;ratioP1;P2;durP2;ratioP2
7881;SDS011;3986;41.884;23.466;2022-12-18T00:00:42;119.17;;;48.53;;
7881;SDS011;3986;41.884;23.466;2022-12-18T00:03:13;66.70;;;44.67;;
7881;SDS011;3986;41.884;23.466;2022-12-18T00:05:45;52.03;;;41.63;;
7881;SDS011;3986;41.884;23.466;2022-12-18T00:08:12;74.17;;;52.30;;
7881;SDS011;3986;41.884;23.466;2022-12-18T00:10:40;62.30;;;49.27;;
7881;SDS011;3986;41.884;23.466;2022-12-18T00:13:06;109.63;;;41.93;;
7881;SDS011;3986;41.884;23.466;2022-12-18T00:15:33;54.93;;;43.13;;
7881;SDS011;3986;41.884;23.466;2022-12-18T00:18:00;47.57;;;42.50;;
7881;SDS011;3986;41.884;23.466;2022-12-18T00:20:28;46.37;;;41.03;;
7881;SDS011;3986;41.884;23.466;2022-12-18T00:22:56;56.40;;;42.07;;
7881;SDS011;3986;41.884;23.466;2022-12-18T00:25:22;53.33;;;43.37;;
7881;SDS011;3986;41.884;23.466;2022-12-18T00:27:49;69.67;;;42.57;;
7881;SDS011;3986;41.884;23.466;2022-12-18T00:30:16;60.07;;;41.37;;
7881;SDS011;3986;41.884;23.466;2022-12-18T00:32:43;55.00;;;41.03;;
7881;SDS011;3986;41.884;23.466;2022-12-18T00:35:10;112.77;;;42.63;;
7881;SDS011;3986;41.884;23.466;2022-12-18T00:37:38;53.20;;;41.03;;
7881;SDS011;3986;41.884;23.466;2022-12-18T00:40:05;42.87;;;37.80;;
7881;SDS011;3986;41.884;23.466;2022-12-18T00:42:35;105.17;;;42.07;;
7881;SDS011;3986;41.884;23.466;2022-12-18T00:45:19;57.93;;;46.07;;
7881;SDS011;3986;41.884;23.466;2022-12-18T00:47:46;66.60;;;47.80;;
7881;SDS011;3986;41.884;23.466;2022-12-18T00:50:13;63.00;;;48.57;;
7881;SDS011;3986;41.884;23.466;2022-12-18T00:52:41;66.20;;;53.37;;
7881;SDS011;3986;41.884;23.466;2022-12-18T00:55:08;149.07;;;55.03;;
7881;SDS011;3986;41.884;23.466;2022-12-18T00:57:36;51.93;;;43.47;;
7881;SDS011;3986;41.884;23.466;2022-12-18T01:00:03;46.87;;;41.77;;
7881;SDS011;3986;41.884;23.466;2022-12-18T01:02:30;49.60;;;42.53;;
7881;SDS011;3986;41.884;23.466;2022-12-18T01:04:57;47.60;;;36.40;;
7881;SDS011;3986;41.884;23.466;2022-12-18T01:07:24;51.80;;;34.80;;
7881;SDS011;3986;41.884;23.466;2022-12-18T01:09:52;57.53;;;32.57;;
7881;SDS011;3986;41.884;23.466;2022-12-18T01:12:19;40.80;;;26.63;;
7881;SDS011;3986;41.884;23.466;2022-12-18T01:14:46;38.27;;;21.03;;
7881;SDS011;3986;41.884;23.466;2022-12-18T01:17:12;62.37;;;22.20;;
7881;SDS011;3986;41.884;23.466;2022-12-18T01:19:39;23.80;;;18.10;;
7881;SDS011;3986;41.884;23.466;2022-12-18T01:22:07;20.43;;;18.37;;
7881;SDS011;3986;41.884;23.466;2022-12-18T01:24:33;20.80;;;18.70;;
7881;SDS011;3986;41.884;23.466;2022-12-18T01:27:02;23.87;;;20.37;;
7881;SDS011;3986;41.884;23.466;2022-12-18T01:29:29;76.13;;;23.13;;
7881;SDS011;3986;41.884;23.466;2022-12-18T01:31:56;33.43;;;21.63;;
7881;SDS011;3986;41.884;23.466;2022-12-18T01:34:23;31.53;;;19.77;;
7881;SDS011;3986;41.884;23.466;2022-12-18T01:36:50;31.97;;;20.97;;
7881;SDS011;3986;41.884;23.466;2022-12-18T01:39:17;38.30;;;20.13;;
7881;SDS011;3986;41.884;23.466;2022-12-18T01:41:44;34.83;;;18.63;;
7881;SDS011;3986;41.884;23.466;2022-12-18T01:47:36;36.97;;;31.07;;
7881;SDS011;3986;41.884;23.466;2022-12-18T01:50:09;31.23;;;26.57;;
7881;SDS011;3986;41.884;23.466;2022-12-18T01:52:39;29.07;;;26.33;;
7881;SDS011;3986;41.884;23.466;2022-12-18T01:55:08;36.43;;;22.73;;
7881;SDS011;3986;41.884;23.466;2022-12-18T01:57:37;27.67;;;22.50;;
7881;SDS011;3986;41.884;23.466;2022-12-18T02:00:06;26.93;;;22.03;;
7881;SDS011;3986;41.884;23.466;2022-12-18T02:02:37;23.33;;;21.00;;
7881;SDS011;3986;41.884;23.466;2022-12-18T02:05:05;28.33;;;24.10;;
7881;SDS011;3986;41.884;23.466;2022-12-18T02:07:37;28.37;;;23.60;;
7881;SDS011;3986;41.884;23.466;2022-12-18T02:10:13;74.90;;;31.07;;
7881;SDS011;3986;41.884;23.466;2022-12-18T02:12:48;35.00;;;20.50;;
7881;SDS011;3986;41.884;23.466;2022-12-18T02:15:24;42.10;;;30.53;;
7881;SDS011;3986;41.884;23.466;2022-12-18T02:17:56;38.63;;;30.60;;
7881;SDS011;3986;41.884;23.466;2022-12-18T02:20:31;37.40;;;30.87;;
7881;SDS011;3986;41.884;23.466;2022-12-18T02:23:04;96.57;;;28.43;;
7881;SDS011;3986;41.884;23.466;2022-12-18T02:28:35;27.40;;;21.23;;
7881;SDS011;3986;41.884;23.466;2022-12-18T02:31:06;27.57;;;20.03;;
7881;SDS011;3986;41.884;23.466;2022-12-18T02:33:37;28.57;;;20.20;;
7881;SDS011;3986;41.884;23.466;2022-12-18T02:36:06;20.70;;;16.27;;
7881;SDS011;3986;41.884;23.466;2022-12-18T02:38:35;54.47;;;18.40;;
7881;SDS011;3986;41.884;23.466;2022-12-18T02:41:03;21.60;;;15.37;;
7881;SDS011;3986;41.884;23.466;2022-12-18T02:43:30;28.40;;;16.07;;
7881;SDS011;3986;41.884;23.466;2022-12-18T02:45:59;26.53;;;15.37;;
7881;SDS011;3986;41.884;23.466;2022-12-18T02:48:46;20.50;;;13.17;;
7881;SDS011;3986;41.884;23.466;2022-12-18T02:51:14;90.07;;;17.40;;
7881;SDS011;3986;41.884;23.466;2022-12-18T02:53:48;32.70;;;16.13;;
7881;SDS011;3986;41.884;23.466;2022-12-18T02:56:20;34.50;;;16.43;;
7881;SDS011;3986;41.884;23.466;2022-12-18T02:58:52;22.33;;;14.43;;
7881;SDS011;3986;41.884;23.466;2022-12-18T03:01:28;20.43;;;12.90;;
7881;SDS011;3986;41.884;23.466;2022-12-18T03:04:00;56.50;;;14.30;;
7881;SDS011;3986;41.884;23.466;2022-12-18T03:06:31;27.93;;;12.87;;
7881;SDS011;3986;41.884;23.466;2022-12-18T03:09:02;24.00;;;21.43;;
7881;SDS011;3986;41.884;23.466;2022-12-18T03:11:33;31.27;;;27.97;;
7881;SDS011;3986;41.884;23.466;2022-12-18T03:14:23;38.10;;;23.77;;
7881;SDS011;3986;41.884;23.466;2022-12-18T03:16:54;33.97;;;24.73;;
7881;SDS011;3986;41.884;23.466;2022-12-18T03:19:26;95.20;;;34.80;;
7881;SDS011;3986;41.884;23.466;2022-12-18T03:21:55;37.20;;;28.93;;
7881;SDS011;3986;41.884;23.466;2022-12-18T03:24:24;48.50;;;33.10;;
7881;SDS011;3986;41.884;23.466;2022-12-18T03:26:52;42.27;;;30.83;;
7881;SDS011;3986;41.884;23.466;2022-12-18T03:29:24;38.30;;;23.37;;
7881;SDS011;3986;41.884;23.466;2022-12-18T03:31:57;82.10;;;18.53;;
7881;SDS011;3986;41.884;23.466;2022-12-18T03:34:29;22.90;;;11.20;;
7881;SDS011;3986;41.884;23.466;2022-12-18T03:36:58;25.40;;;11.13;;
7881;SDS011;3986;41.884;23.466;2022-12-18T03:39:25;20.10;;;9.77;;
7881;SDS011;3986;41.884;23.466;2022-12-18T03:41:52;26.87;;;11.80;;
7881;SDS011;3986;41.884;23.466;2022-12-18T03:44:27;77.30;;;17.40;;
7881;SDS011;3986;41.884;23.466;2022-12-18T03:46:58;25.17;;;17.23;;
7881;SDS011;3986;41.884;23.466;2022-12-18T03:49:33;32.97;;;19.50;;
7881;SDS011;3986;41.884;23.466;2022-12-18T03:52:04;30.17;;;21.03;;
7881;SDS011;3986;41.884;23.466;2022-12-18T03:54:35;33.13;;;23.27;;
7881;SDS011;3986;41.884;23.466;2022-12-18T03:57:03;99.03;;;26.53;;
7881;SDS011;3986;41.884;23.466;2022-12-18T03:59:33;28.53;;;19.10;;
7881;SDS011;3986;41.884;23.466;2022-12-18T04:02:02;24.90;;;14.80;;
7881;SDS011;3986;41.884;23.466;2022-12-18T04:04:31;25.93;;;12.93;;
7881;SDS011;3986;41.884;23.466;2022-12-18T04:07:00;39.80;;;13.10;;
7881;SDS011;3986;41.884;23.466;2022-12-18T04:09:27;71.23;;;15.57;;
7881;SDS011;3986;41.884;23.466;2022-12-18T04:11:56;23.73;;;12.40;;
7881;SDS011;3986;41.884;23.466;2022-12-18T04:14:23;27.73;;;11.53;;
7881;SDS011;3986;41.884;23.466;2022-12-18T04:16:49;22.80;;;11.57;;
7881;SDS011;3986;41.884;23.466;2022-12-18T04:19:18;15.90;;;12.17;;
7881;SDS011;3986;41.884;23.466;2022-12-18T04:21:44;21.07;;;12.83;;
7881;SDS011;3986;41.884;23.466;2022-12-18T04:24:11;24.33;;;12.37;;
7881;SDS011;3986;41.884;23.466;2022-12-18T04:26:38;26.77;;;17.30;;
7881;SDS011;3986;41.884;23.466;2022-12-18T04:29:05;31.83;;;17.67;;
7881;SDS011;3986;41.884;23.466;2022-12-18T04:31:31;95.33;;;21.40;;
7881;SDS011;3986;41.884;23.466;2022-12-18T04:33:58;33.07;;;15.87;;
7881;SDS011;3986;41.884;23.466;2022-12-18T04:36:27;28.47;;;13.30;;
7881;SDS011;3986;41.884;23.466;2022-12-18T04:38:54;20.30;;;11.03;;
7881;SDS011;3986;41.884;23.466;2022-12-18T04:41:21;24.00;;;10.97;;
7881;SDS011;3986;41.884;23.466;2022-12-18T04:43:48;18.17;;;11.80;;
7881;SDS011;3986;41.884;23.466;2022-12-18T04:46:15;18.80;;;13.40;;
7881;SDS011;3986;41.884;23.466;2022-12-18T04:48:42;23.17;;;15.50;;
7881;SDS011;3986;41.884;23.466;2022-12-18T04:51:12;25.37;;;19.50;;
7881;SDS011;3986;41.884;23.466;2022-12-18T04:53:40;34.77;;;25.20;;
7881;SDS011;3986;41.884;23.466;2022-12-18T04:56:07;38.20;;;26.10;;
7881;SDS011;3986;41.884;23.466;2022-12-18T04:58:35;30.83;;;23.57;;
7881;SDS011;3986;41.884;23.466;2022-12-18T05:01:02;36.40;;;24.30;;
7881;SDS011;3986;41.884;23.466;2022-12-18T05:03:29;31.83;;;26.33;;
7881;SDS011;3986;41.884;23.466;2022-12-18T05:05:56;22.30;;;19.97;;
7881;SDS011;3986;41.884;23.466;2022-12-18T05:08:23;25.43;;;18.10;;
7881;SDS011;3986;41.884;23.466;2022-12-18T05:10:58;23.27;;;20.83;;
7881;SDS011;3986;41.884;23.466;2022-12-18T05:13:26;44.73;;;39.93;;
7881;SDS011;3986;41.884;23.466;2022-12-18T05:15:53;51.83;;;43.67;;
7881;SDS011;3986;41.884;23.466;2022-12-18T05:18:20;78.40;;;68.77;;
7881;SDS011;3986;41.884;23.466;2022-12-18T05:20:47;49.10;;;44.43;;
7881;SDS011;3986;41.884;23.466;2022-12-18T05:23:15;67.93;;;60.77;;
7881;SDS011;3986;41.884;23.466;2022-12-18T05:25:41;83.73;;;75.27;;
7881;SDS011;3986;41.884;23.466;2022-12-18T05:28:10;110.60;;;97.63;;
7881;SDS011;3986;41.884;23.466;2022-12-18T05:30:37;66.67;;;58.20;;
7881;SDS011;3986;41.884;23.466;2022-12-18T05:33:03;81.17;;;72.37;;
7881;SDS011;3986;41.884;23.466;2022-12-18T05:35:30;83.60;;;74.77;;
7881;SDS011;3986;41.884;23.466;2022-12-18T05:37:57;52.93;;;47.10;;
7881;SDS011;3986;41.884;23.466;2022-12-18T05:40:24;54.40;;;49.40;;
7881;SDS011;3986;41.884;23.466;2022-12-18T05:42:50;49.33;;;44.90;;
7881;SDS011;3986;41.884;23.466;2022-12-18T05:45:19;54.63;;;49.23;;
7881;SDS011;3986;41.884;23.466;2022-12-18T05:47:46;53.03;;;48.00;;
7881;SDS011;3986;41.884;23.466;2022-12-18T05:50:13;51.87;;;47.27;;
7881;SDS011;3986;41.884;23.466;2022-12-18T05:52:39;59.17;;;53.40;;
7881;SDS011;3986;41.884;23.466;2022-12-18T05:55:07;56.13;;;50.50;;
7881;SDS011;3986;41.884;23.466;2022-12-18T05:57:33;56.40;;;50.37;;
7881;SDS011;3986;41.884;23.466;2022-12-18T06:00:00;56.20;;;50.33;;
7881;SDS011;3986;41.884;23.466;2022-12-18T06:02:29;65.40;;;46.63;;
7881;SDS011;3986;41.884;23.466;2022-12-18T06:04:56;33.33;;;30.37;;
7881;SDS011;3986;41.884;23.466;2022-12-18T06:07:22;37.13;;;33.17;;
7881;SDS011;3986;41.884;23.466;2022-12-18T06:09:49;29.70;;;27.00;;
7881;SDS011;3986;41.884;23.466;2022-12-18T06:12:16;23.87;;;20.03;;
7881;SDS011;3986;41.884;23.466;2022-12-18T06:14:43;31.87;;;18.00;;
7881;SDS011;3986;41.884;23.466;2022-12-18T06:17:10;32.07;;;20.47;;
7881;SDS011;3986;41.884;23.466;2022-12-18T06:19:38;30.97;;;22.17;;
7881;SDS011;3986;41.884;23.466;2022-12-18T06:22:05;38.97;;;26.30;;
7881;SDS011;3986;41.884;23.466;2022-12-18T06:24:31;43.63;;;26.20;;
7881;SDS011;3986;41.884;23.466;2022-12-18T06:26:58;30.30;;;22.67;;
7881;SDS011;3986;41.884;23.466;2022-12-18T06:29:25;27.60;;;19.47;;
7881;SDS011;3986;41.884;23.466;2022-12-18T06:31:52;23.43;;;16.50;;
7881;SDS011;3986;41.884;23.466;2022-12-18T06:34:18;32.43;;;18.27;;
7881;SDS011;3986;41.884;23.466;2022-12-18T06:36:46;28.53;;;20.77;;
7881;SDS011;3986;41.884;23.466;2022-12-18T06:39:13;36.73;;;22.63;;
7881;SDS011;3986;41.884;23.466;2022-12-18T06:41:40;39.97;;;27.60;;
7881;SDS011;3986;41.884;23.466;2022-12-18T06:44:07;68.20;;;51.17;;
7881;SDS011;3986;41.884;23.466;2022-12-18T06:46:34;40.90;;;30.90;;
7881;SDS011;3986;41.884;23.466;2022-12-18T06:49:00;45.33;;;40.53;;
7881;SDS011;3986;41.884;23.466;2022-12-18T06:51:27;54.33;;;49.30;;
7881;SDS011;3986;41.884;23.466;2022-12-18T06:53:55;62.27;;;54.47;;
7881;SDS011;3986;41.884;23.466;2022-12-18T06:56:22;57.97;;;52.57;;
7881;SDS011;3986;41.884;23.466;2022-12-18T06:58:50;58.77;;;53.13;;
7881;SDS011;3986;41.884;23.466;2022-12-18T07:01:17;62.97;;;57.00;;
7881;SDS011;3986;41.884;23.466;2022-12-18T07:03:44;76.30;;;68.37;;
7881;SDS011;3986;41.884;23.466;2022-12-18T07:06:12;68.17;;;58.13;;
7881;SDS011;3986;41.884;23.466;2022-12-18T07:08:40;66.23;;;45.43;;
7881;SDS011;3986;41.884;23.466;2022-12-18T07:11:09;49.10;;;34.67;;
7881;SDS011;3986;41.884;23.466;2022-12-18T07:13:36;45.80;;;34.53;;
7881;SDS011;3986;41.884;23.466;2022-12-18T07:16:03;38.10;;;27.27;;
7881;SDS011;3986;41.884;23.466;2022-12-18T07:18:32;39.37;;;30.17;;
7881;SDS011;3986;41.884;23.466;2022-12-18T07:21:01;40.47;;;30.50;;
7881;SDS011;3986;41.884;23.466;2022-12-18T07:23:29;44.00;;;38.17;;
7881;SDS011;3986;41.884;23.466;2022-12-18T07:26:02;62.13;;;37.63;;
7881;SDS011;3986;41.884;23.466;2022-12-18T07:28:31;69.23;;;62.90;;
7881;SDS011;3986;41.884;23.466;2022-12-18T07:31:01;70.67;;;61.00;;
7881;SDS011;3986;41.884;23.466;2022-12-18T07:33:29;69.57;;;62.60;;
7881;SDS011;3986;41.884;23.466;2022-12-18T07:35:56;50.27;;;45.40;;
7881;SDS011;3986;41.884;23.466;2022-12-18T07:38:24;54.13;;;49.20;;
7881;SDS011;3986;41.884;23.466;2022-12-18T07:40:51;58.00;;;52.13;;
7881;SDS011;3986;41.884;23.466;2022-12-18T07:43:18;56.80;;;51.10;;
7881;SDS011;3986;41.884;23.466;2022-12-18T07:45:48;74.13;;;47.73;;
7881;SDS011;3986;41.884;23.466;2022-12-18T07:48:15;50.33;;;43.67;;
7881;SDS011;3986;41.884;23.466;2022-12-18T07:50:42;47.20;;;40.77;;
7881;SDS011;3986;41.884;23.466;2022-12-18T07:53:09;76.43;;;45.70;;
7881;SDS011;3986;41.884;23.466;2022-12-18T07:55:35;72.07;;;48.73;;
7881;SDS011;3986;41.884;23.466;2022-12-18T07:58:02;66.77;;;50.80;;
7881;SDS011;3986;41.884;23.466;2022-12-18T08:00:30;66.80;;;53.23;;
7881;SDS011;3986;41.884;23.466;2022-12-18T08:02:58;81.97;;;73.43;;
7881;SDS011;3986;41.884;23.466;2022-12-18T08:05:25;81.97;;;68.50;;
7881;SDS011;3986;41.884;23.466;2022-12-18T08:07:52;92.77;;;83.50;;
7881;SDS011;3986;41.884;23.466;2022-12-18T08:10:19;96.60;;;86.83;;
7881;SDS011;3986;41.884;23.466;2022-12-18T08:12:48;108.10;;;96.93;;
7881;SDS011;3986;41.884;23.466;2022-12-18T08:15:16;125.63;;;113.17;;
7881;SDS011;3986;41.884;23.466;2022-12-18T08:17:42;110.53;;;98.93;;
7881;SDS011;3986;41.884;23.466;2022-12-18T08:20:11;92.30;;;80.20;;
7881;SDS011;3986;41.884;23.466;2022-12-18T08:22:40;79.73;;;66.37;;
7881;SDS011;3986;41.884;23.466;2022-12-18T08:25:07;83.30;;;58.57;;
7881;SDS011;3986;41.884;23.466;2022-12-18T08:27:34;70.23;;;52.10;;
7881;SDS011;3986;41.884;23.466;2022-12-18T08:30:01;79.07;;;64.67;;
7881;SDS011;3986;41.884;23.466;2022-12-18T08:32:28;72.10;;;64.33;;
7881;SDS011;3986;41.884;23.466;2022-12-18T08:34:55;68.47;;;55.60;;
7881;SDS011;3986;41.884;23.466;2022-12-18T08:37:23;60.87;;;45.97;;
7881;SDS011;3986;41.884;23.466;2022-12-18T08:39:50;58.13;;;38.77;;
7881;SDS011;3986;41.884;23.466;2022-12-18T08:42:17;77.33;;;48.60;;
7881;SDS011;3986;41.884;23.466;2022-12-18T08:45:01;65.40;;;48.23;;
7881;SDS011;3986;41.884;23.466;2022-12-18T08:47:28;51.50;;;45.33;;
7881;SDS011;3986;41.884;23.466;2022-12-18T08:49:54;58.07;;;40.97;;
7881;SDS011;3986;41.884;23.466;2022-12-18T08:52:21;41.13;;;34.20;;
7881;SDS011;3986;41.884;23.466;2022-12-18T08:54:49;56.73;;;40.87;;
7881;SDS011;3986;41.884;23.466;2022-12-18T08:57:16;100.00;;;46.47;;
7881;SDS011;3986;41.884;23.466;2022-12-18T08:59:43;68.87;;;49.47;;
7881;SDS011;3986;41.884;23.466;2022-12-18T09:02:10;81.20;;;58.03;;
7881;SDS011;3986;41.884;23.466;2022-12-18T09:04:36;78.03;;;52.90;;
7881;SDS011;3986;41.884;23.466;2022-12-18T09:07:04;86.63;;;63.23;;
7881;SDS011;3986;41.884;23.466;2022-12-18T09:09:31;72.80;;;50.77;;
7881;SDS011;3986;41.884;23.466;2022-12-18T09:11:59;81.17;;;55.53;;
7881;SDS011;3986;41.884;23.466;2022-12-18T09:14:26;77.57;;;62.07;;
7881;SDS011;3986;41.884;23.466;2022-12-18T09:16:53;83.70;;;71.37;;
7881;SDS011;3986;41.884;23.466;2022-12-18T09:19:20;100.20;;;61.70;;
7881;SDS011;3986;41.884;23.466;2022-12-18T09:21:46;94.37;;;59.57;;
7881;SDS011;3986;41.884;23.466;2022-12-18T09:24:13;92.33;;;60.90;;
7881;SDS011;3986;41.884;23.466;2022-12-18T09:26:41;116.83;;;59.00;;
7881;SDS011;3986;41.884;23.466;2022-12-18T09:29:09;110.77;;;62.90;;
7881;SDS011;3986;41.884;23.466;2022-12-18T09:31:36;96.17;;;57.57;;
7881;SDS011;3986;41.884;23.466;2022-12-18T09:34:04;77.47;;;56.97;;
7881;SDS011;3986;41.884;23.466;2022-12-18T09:36:31;72.83;;;56.00;;
7881;SDS011;3986;41.884;23.466;2022-12-18T09:38:58;105.50;;;69.67;;
7881;SDS011;3986;41.884;23.466;2022-12-18T09:41:31;106.13;;;62.67;;
7881;SDS011;3986;41.884;23.466;2022-12-18T09:44:11;108.13;;;70.57;;
7881;SDS011;3986;41.884;23.466;2022-12-18T09:46:43;99.97;;;55.07;;
7881;SDS011;3986;41.884;23.466;2022-12-18T09:49:16;106.83;;;54.13;;
7881;SDS011;3986;41.884;23.466;2022-12-18T09:51:47;73.23;;;33.10;;
7881;SDS011;3986;41.884;23.466;2022-12-18T09:54:18;68.30;;;28.90;;
7881;SDS011;3986;41.884;23.466;2022-12-18T09:56:48;77.73;;;31.37;;
7881;SDS011;3986;41.884;23.466;2022-12-18T09:59:19;75.17;;;36.63;;
7881;SDS011;3986;41.884;23.466;2022-12-18T10:01:49;90.80;;;37.87;;
7881;SDS011;3986;41.884;23.466;2022-12-18T10:04:16;49.27;;;34.40;;
7881;SDS011;3986;41.884;23.466;2022-12-18T10:06:44;88.70;;;32.43;;
7881;SDS011;3986;41.884;23.466;2022-12-18T10:09:20;80.60;;;32.47;;
7881;SDS011;3986;41.884;23.466;2022-12-18T10:11:56;76.73;;;28.60;;
7881;SDS011;3986;41.884;23.466;2022-12-18T10:14:32;71.40;;;29.27;;
7881;SDS011;3986;41.884;23.466;2022-12-18T10:17:05;58.60;;;38.17;;
7881;SDS011;3986;41.884;23.466;2022-12-18T10:19:42;67.60;;;35.33;;
7881;SDS011;3986;41.884;23.466;2022-12-18T10:22:26;91.63;;;38.27;;
7881;SDS011;3986;41.884;23.466;2022-12-18T10:25:09;73.90;;;41.63;;
7881;SDS011;3986;41.884;23.466;2022-12-18T10:27:43;73.70;;;33.10;;
7881;SDS011;3986;41.884;23.466;2022-12-18T10:30:14;68.30;;;38.10;;
7881;SDS011;3986;41.884;23.466;2022-12-18T10:32:42;68.83;;;32.83;;
7881;SDS011;3986;41.884;23.466;2022-12-18T10:35:11;65.17;;;33.97;;
7881;SDS011;3986;41.884;23.466;2022-12-18T10:40:31;66.70;;;25.70;;
7881;SDS011;3986;41.884;23.466;2022-12-18T10:43:05;75.40;;;27.07;;
7881;SDS011;3986;41.884;23.466;2022-12-18T10:45:42;51.83;;;21.67;;
7881;SDS011;3986;41.884;23.466;2022-12-18T10:48:25;59.80;;;24.27;;
7881;SDS011;3986;41.884;23.466;2022-12-18T10:50:53;50.33;;;26.00;;
7881;SDS011;3986;41.884;23.466;2022-12-18T10:53:21;46.83;;;23.03;;
7881;SDS011;3986;41.884;23.466;2022-12-18T10:55:50;55.77;;;23.47;;
7881;SDS011;3986;41.884;23.466;2022-12-18T10:58:21;52.93;;;25.53;;
7881;SDS011;3986;41.884;23.466;2022-12-18T11:01:05;51.37;;;22.77;;
7881;SDS011;3986;41.884;23.466;2022-12-18T11:03:37;31.67;;;23.00;;
7881;SDS011;3986;41.884;23.466;2022-12-18T11:06:06;60.30;;;25.73;;
7881;SDS011;3986;41.884;23.466;2022-12-18T11:08:35;47.40;;;23.50;;
7881;SDS011;3986;41.884;23.466;2022-12-18T11:11:02;48.47;;;25.70;;
7881;SDS011;3986;41.884;23.466;2022-12-18T11:13:33;74.37;;;28.50;;
7881;SDS011;3986;41.884;23.466;2022-12-18T11:16:00;38.70;;;23.60;;
7881;SDS011;3986;41.884;23.466;2022-12-18T11:18:29;69.63;;;46.20;;
7881;SDS011;3986;41.884;23.466;2022-12-18T11:20:58;50.63;;;33.17;;
7881;SDS011;3986;41.884;23.466;2022-12-18T11:23:32;53.10;;;33.83;;
7881;SDS011;3986;41.884;23.466;2022-12-18T11:26:01;56.07;;;28.10;;
7881;SDS011;3986;41.884;23.466;2022-12-18T11:28:34;71.40;;;29.77;;
7881;SDS011;3986;41.884;23.466;2022-12-18T11:31:19;64.40;;;41.83;;
7881;SDS011;3986;41.884;23.466;2022-12-18T11:33:52;73.97;;;46.60;;
7881;SDS011;3986;41.884;23.466;2022-12-18T11:36:24;115.13;;;47.23;;
7881;SDS011;3986;41.884;23.466;2022-12-18T11:38:54;97.23;;;49.77;;
7881;SDS011;3986;41.884;23.466;2022-12-18T11:41:25;102.67;;;46.73;;
7881;SDS011;3986;41.884;23.466;2022-12-18T11:44:10;42.53;;;29.20;;
7881;SDS011;3986;41.884;23.466;2022-12-18T11:46:43;62.93;;;34.97;;
7881;SDS011;3986;41.884;23.466;2022-12-18T11:49:17;57.63;;;35.80;;
7881;SDS011;3986;41.884;23.466;2022-12-18T11:51:50;76.70;;;37.23;;
7881;SDS011;3986;41.884;23.466;2022-12-18T11:54:19;87.10;;;42.80;;
7881;SDS011;3986;41.884;23.466;2022-12-18T11:56:46;92.87;;;49.57;;
7881;SDS011;3986;41.884;23.466;2022-12-18T11:59:20;85.50;;;57.20;;
7881;SDS011;3986;41.884;23.466;2022-12-18T12:01:55;100.10;;;55.00;;
7881;SDS011;3986;41.884;23.466;2022-12-18T12:04:45;109.97;;;60.80;;
7881;SDS011;3986;41.884;23.466;2022-12-18T12:07:31;115.73;;;54.67;;
7881;SDS011;3986;41.884;23.466;2022-12-18T12:10:09;119.17;;;56.40;;
7881;SDS011;3986;41.884;23.466;2022-12-18T12:12:52;78.77;;;55.03;;
7881;SDS011;3986;41.884;23.466;2022-12-18T12:15:30;67.80;;;48.50;;
7881;SDS011;3986;41.884;23.466;2022-12-18T12:18:16;59.07;;;44.53;;
7881;SDS011;3986;41.884;23.466;2022-12-18T12:20:56;92.27;;;50.57;;
7881;SDS011;3986;41.884;23.466;2022-12-18T12:23:30;71.60;;;45.13;;
7881;SDS011;3986;41.884;23.466;2022-12-18T12:26:06;70.00;;;34.93;;
7881;SDS011;3986;41.884;23.466;2022-12-18T12:31:38;85.07;;;34.63;;
7881;SDS011;3986;41.884;23.466;2022-12-18T12:34:16;56.43;;;32.50;;
7881;SDS011;3986;41.884;23.466;2022-12-18T12:36:51;51.43;;;32.57;;
7881;SDS011;3986;41.884;23.466;2022-12-18T12:39:29;86.00;;;39.10;;
7881;SDS011;3986;41.884;23.466;2022-12-18T12:41:59;67.70;;;37.70;;
7881;SDS011;3986;41.884;23.466;2022-12-18T12:44:45;49.90;;;33.73;;
7881;SDS011;3986;41.884;23.466;2022-12-18T12:47:17;53.50;;;35.73;;
7881;SDS011;3986;41.884;23.466;2022-12-18T12:49:49;62.17;;;37.17;;
7881;SDS011;3986;41.884;23.466;2022-12-18T12:52:20;63.80;;;39.03;;
7881;SDS011;3986;41.884;23.466;2022-12-18T12:54:55;85.33;;;60.77;;
7881;SDS011;3986;41.884;23.466;2022-12-18T12:57:26;87.97;;;57.67;;
7881;SDS011;3986;41.884;23.466;2022-12-18T12:59:58;56.30;;;41.47;;
7881;SDS011;3986;41.884;23.466;2022-12-18T13:02:32;64.40;;;41.27;;
7881;SDS011;3986;41.884;23.466;2022-12-18T13:05:04;72.03;;;46.57;;
7881;SDS011;3986;41.884;23.466;2022-12-18T13:07:37;80.50;;;42.37;;
7881;SDS011;3986;41.884;23.466;2022-12-18T13:10:11;91.93;;;46.13;;
7881;SDS011;3986;41.884;23.466;2022-12-18T13:12:55;104.60;;;42.83;;
7881;SDS011;3986;41.884;23.466;2022-12-18T13:15:24;64.83;;;40.03;;
7881;SDS011;3986;41.884;23.466;2022-12-18T13:18:02;74.27;;;42.63;;
7881;SDS011;3986;41.884;23.466;2022-12-18T13:20:35;59.27;;;38.73;;
7881;SDS011;3986;41.884;23.466;2022-12-18T13:25:57;69.53;;;42.53;;
7881;SDS011;3986;41.884;23.466;2022-12-18T13:34:34;45.27;;;31.83;;
7881;SDS011;3986;41.884;23.466;2022-12-18T13:43:19;54.93;;;33.97;;
7881;SDS011;3986;41.884;23.466;2022-12-18T13:45:58;50.30;;;30.33;;
7881;SDS011;3986;41.884;23.466;2022-12-18T13:48:27;43.67;;;35.07;;
7881;SDS011;3986;41.884;23.466;2022-12-18T13:50:58;60.30;;;34.70;;
7881;SDS011;3986;41.884;23.466;2022-12-18T13:53:29;50.73;;;35.90;;
7881;SDS011;3986;41.884;23.466;2022-12-18T13:55:59;77.43;;;38.63;;
7881;SDS011;3986;41.884;23.466;2022-12-18T13:58:29;86.70;;;37.03;;
7881;SDS011;3986;41.884;23.466;2022-12-18T14:00:56;75.17;;;36.30;;
7881;SDS011;3986;41.884;23.466;2022-12-18T14:03:26;63.87;;;38.33;;
7881;SDS011;3986;41.884;23.466;2022-12-18T14:05:59;75.10;;;37.53;;
7881;SDS011;3986;41.884;23.466;2022-12-18T14:08:30;72.17;;;40.60;;
7881;SDS011;3986;41.884;23.466;2022-12-18T14:11:01;90.43;;;48.80;;
7881;SDS011;3986;41.884;23.466;2022-12-18T14:13:32;54.97;;;35.83;;
7881;SDS011;3986;41.884;23.466;2022-12-18T14:16:02;62.73;;;34.47;;
7881;SDS011;3986;41.884;23.466;2022-12-18T14:18:32;61.87;;;34.17;;
7881;SDS011;3986;41.884;23.466;2022-12-18T14:21:05;81.13;;;37.90;;
7881;SDS011;3986;41.884;23.466;2022-12-18T14:23:33;76.47;;;36.53;;
7881;SDS011;3986;41.884;23.466;2022-12-18T14:26:02;84.73;;;41.17;;
7881;SDS011;3986;41.884;23.466;2022-12-18T14:28:46;53.30;;;32.30;;
7881;SDS011;3986;41.884;23.466;2022-12-18T14:31:16;55.00;;;35.27;;
7881;SDS011;3986;41.884;23.466;2022-12-18T14:33:44;59.13;;;40.40;;
7881;SDS011;3986;41.884;23.466;2022-12-18T14:36:13;51.87;;;37.57;;
7881;SDS011;3986;41.884;23.466;2022-12-18T14:38:42;63.03;;;40.80;;
7881;SDS011;3986;41.884;23.466;2022-12-18T14:41:10;74.07;;;42.00;;
7881;SDS011;3986;41.884;23.466;2022-12-18T14:43:38;46.27;;;38.50;;
7881;SDS011;3986;41.884;23.466;2022-12-18T14:46:24;92.47;;;38.97;;
7881;SDS011;3986;41.884;23.466;2022-12-18T14:48:54;86.10;;;33.20;;
7881;SDS011;3986;41.884;23.466;2022-12-18T14:51:22;56.13;;;34.13;;
7881;SDS011;3986;41.884;23.466;2022-12-18T14:53:53;46.47;;;34.77;;
7881;SDS011;3986;41.884;23.466;2022-12-18T14:56:22;56.57;;;35.40;;
7881;SDS011;3986;41.884;23.466;2022-12-18T14:58:51;39.20;;;31.43;;
7881;SDS011;3986;41.884;23.466;2022-12-18T15:01:24;47.80;;;31.93;;
7881;SDS011;3986;41.884;23.466;2022-12-18T15:03:53;49.67;;;32.40;;
7881;SDS011;3986;41.884;23.466;2022-12-18T15:06:27;54.63;;;36.97;;
7881;SDS011;3986;41.884;23.466;2022-12-18T15:08:57;76.87;;;38.70;;
7881;SDS011;3986;41.884;23.466;2022-12-18T15:11:25;62.00;;;42.67;;
7881;SDS011;3986;41.884;23.466;2022-12-18T15:13:56;79.53;;;43.03;;
7881;SDS011;3986;41.884;23.466;2022-12-18T15:16:25;78.10;;;59.70;;